Weather at Ljungbyhed Airfield

Public forecast

Using degrees Celsius for public forecast. Weather courtesy of forecast.io.

Current aviation weather report (METAR) for Ljungbyhed Airfield

2024/05/30 09:20 (retrieved 19 minutes ago)

ESTL 300920Z 14009KT 9999 FEW010 SCT017 BKN021 19/15 Q1008

Closest aviation forecast (TAF) to Ljungbyhed Airfield

Closest forecast is Malmö Sturup Airport, 32.4 nm (60.1 km) S.

2024/05/30 09:37 (retrieved 2 minutes ago)

TAF ESMS 300816Z 3009/3109 13010KT 9999 SCT020 BKN040 TEMPO 3009/3010 BKN012 FEW020CB TEMPO 3010/3022 SCT020CB TEMPO 3022/3109 3000 BR BKN006 FEW020CB